Time;durP1;ratioP1;P1;durP2;ratioP2;P2;SDS_P1;SDS_P2;PMS_P1;PMS_P2;Temp;Humidity;BMP_temperature;BMP_pressure;BME280_temperature;BME280_humidity;BME280_pressure;Samples;Min_cycle;Max_cycle;Signal;HPM_P1;HPM_P2
2021/04/18 00:00:40;;;;;;;5.80;2.05;;;5.80;69.80;;;;;;2064871;28;20109;-84
2021/04/18 00:01:41;;;;;;;4.15;1.73;;;5.80;69.90;;;;;;2066544;28;20030;-84
2021/04/18 00:02:41;;;;;;;5.00;1.80;;;5.90;70.10;;;;;;2080821;28;20030;-84
2021/04/18 00:03:42;;;;;;;4.75;2.20;;;5.80;70.00;;;;;;2076639;28;20567;-84
2021/04/18 00:04:42;;;;;;;5.15;2.00;;;5.80;70.20;;;;;;2068487;28;20060;-84
2021/04/18 00:05:43;;;;;;;5.80;1.67;;;5.80;70.30;;;;;;2084645;28;20112;-85
2021/04/18 00:06:44;;;;;;;3.83;1.90;;;5.80;70.40;;;;;;2079883;28;20030;-85
2021/04/18 00:07:45;;;;;;;6.03;1.90;;;5.80;70.40;;;;;;2075033;28;20037;-85
2021/04/18 00:08:45;;;;;;;4.53;1.83;;;5.80;70.40;;;;;;2068332;28;20046;-84
2021/04/18 00:09:46;;;;;;;4.95;1.90;;;5.80;70.40;;;;;;2074679;28;20108;-84
2021/04/18 00:10:46;;;;;;;4.20;1.77;;;5.80;70.50;;;;;;2072213;28;20384;-84
2021/04/18 00:11:47;;;;;;;4.45;1.95;;;5.80;70.70;;;;;;2073154;28;20030;-84
2021/04/18 00:12:48;;;;;;;5.10;2.10;;;5.80;70.80;;;;;;2078861;28;20110;-84
2021/04/18 00:13:48;;;;;;;4.35;1.70;;;5.80;70.90;;;;;;2068124;28;20030;-84
2021/04/18 00:14:49;;;;;;;5.25;2.03;;;5.70;70.90;;;;;;2070959;28;20396;-84
2021/04/18 00:15:50;;;;;;;4.65;1.98;;;5.70;70.90;;;;;;2074496;28;20416;-84
2021/04/18 00:16:51;;;;;;;5.75;2.00;;;5.70;71.00;;;;;;2087076;28;20048;-84
2021/04/18 00:17:52;;;;;;;4.50;2.00;;;5.70;71.20;;;;;;2072763;28;20018;-85
2021/04/18 00:18:53;;;;;;;6.05;2.10;;;5.70;71.20;;;;;;2059756;28;20070;-84
2021/04/18 00:19:53;;;;;;;5.35;2.00;;;5.70;71.30;;;;;;2074995;28;20473;-85
2021/04/18 00:20:56;;;;;;;6.03;1.83;;;5.70;71.40;;;;;;2079292;28;20044;-84
2021/04/18 00:21:56;;;;;;;4.53;2.10;;;5.70;71.60;;;;;;2074917;28;20124;-84
2021/04/18 00:22:57;;;;;;;4.63;2.17;;;5.70;71.60;;;;;;2078781;28;21568;-84
2021/04/18 00:23:58;;;;;;;6.28;2.05;;;5.70;71.70;;;;;;2079438;28;20041;-85
2021/04/18 00:24:59;;;;;;;4.07;1.70;;;5.70;71.80;;;;;;2074063;28;20049;-85
2021/04/18 00:25:59;;;;;;;5.63;2.10;;;5.70;71.90;;;;;;2078705;28;20073;-84
2021/04/18 00:27:00;;;;;;;4.03;1.88;;;5.70;71.80;;;;;;2075269;28;20058;-84
2021/04/18 00:28:00;;;;;;;6.03;1.95;;;5.70;71.90;;;;;;2068612;28;20510;-85
2021/04/18 00:29:02;;;;;;;5.57;2.15;;;5.70;71.90;;;;;;2066865;28;20027;-85
2021/04/18 00:30:09;;;;;;;4.85;2.00;;;5.70;71.90;;;;;;2076952;28;20546;-85
2021/04/18 00:31:09;;;;;;;5.38;1.88;;;5.70;71.90;;;;;;2090858;28;20024;-85
2021/04/18 00:32:10;;;;;;;3.65;1.75;;;5.70;71.90;;;;;;2088486;28;20079;-84
2021/04/18 00:33:11;;;;;;;5.93;2.67;;;5.70;72.00;;;;;;2080351;28;20022;-84
2021/04/18 00:34:11;;;;;;;4.18;1.70;;;5.70;72.00;;;;;;2073176;28;20029;-84
2021/04/18 00:35:12;;;;;;;5.35;1.85;;;5.70;72.00;;;;;;2077510;28;20017;-84
2021/04/18 00:36:13;;;;;;;4.65;1.95;;;5.70;72.10;;;;;;2083032;28;20049;-84
2021/04/18 00:37:13;;;;;;;4.03;2.13;;;5.70;72.10;;;;;;2084186;28;20026;-84
2021/04/18 00:38:14;;;;;;;3.30;1.52;;;5.70;72.10;;;;;;2087503;28;20033;-84
2021/04/18 00:39:15;;;;;;;3.67;1.67;;;5.70;72.10;;;;;;2070330;28;20025;-85
2021/04/18 00:40:23;;;;;;;4.53;1.98;;;5.70;72.10;;;;;;2075208;28;20046;-84
2021/04/18 00:41:24;;;;;;;4.13;1.60;;;5.70;72.10;;;;;;2083159;28;20130;-84
2021/04/18 00:42:25;;;;;;;5.85;1.95;;;5.70;72.10;;;;;;2082632;28;20129;-84
2021/04/18 00:43:26;;;;;;;4.68;1.80;;;5.80;72.10;;;;;;2078718;28;20595;-84
2021/04/18 00:44:26;;;;;;;3.40;1.60;;;5.80;72.80;;;;;;2069325;28;20108;-84
2021/04/18 00:45:27;;;;;;;4.22;1.60;;;5.80;72.20;;;;;;2062000;28;20030;-84
2021/04/18 00:46:28;;;;;;;4.55;1.83;;;5.80;72.20;;;;;;2061325;28;20047;-84
2021/04/18 00:47:32;;;;;;;4.13;1.70;;;5.80;72.20;;;;;;2059817;28;20715;-84
2021/04/18 00:48:34;;;;;;;2.88;1.35;;;5.80;72.30;;;;;;2070558;28;20019;-84
2021/04/18 00:49:34;;;;;;;3.78;1.63;;;5.80;72.40;;;;;;2078899;28;20061;-84
2021/04/18 00:50:38;;;;;;;4.07;1.77;;;5.90;72.40;;;;;;2067609;28;20038;-84
2021/04/18 00:51:39;;;;;;;4.13;1.83;;;5.90;72.50;;;;;;2083475;28;20053;-84
2021/04/18 00:52:39;;;;;;;4.75;1.83;;;5.80;72.40;;;;;;2090391;28;20553;-85
2021/04/18 00:53:41;;;;;;;4.28;1.90;;;5.80;72.50;;;;;;2082460;28;20037;-85
2021/04/18 00:54:42;;;;;;;4.03;1.55;;;5.90;72.50;;;;;;2080201;28;20036;-85
2021/04/18 00:55:43;;;;;;;4.05;1.90;;;5.80;72.50;;;;;;2074406;28;20087;-84
2021/04/18 00:56:44;;;;;;;3.85;1.50;;;5.80;72.60;;;;;;2076778;28;20041;-84
2021/04/18 00:57:45;;;;;;;5.28;2.03;;;5.80;72.60;;;;;;2081446;28;20459;-84
2021/04/18 00:58:46;;;;;;;3.70;1.85;;;5.80;73.30;;;;;;2082789;28;20064;-84
2021/04/18 00:59:48;;;;;;;5.88;2.13;;;5.80;72.80;;;;;;2076644;28;20037;-84
2021/04/18 01:00:50;;;;;;;3.63;1.73;;;5.80;72.80;;;;;;2073787;28;20038;-85
2021/04/18 01:01:50;;;;;;;3.78;1.60;;;5.80;72.80;;;;;;2079099;28;20117;-84
2021/04/18 01:02:51;;;;;;;4.10;1.55;;;5.80;72.90;;;;;;2073009;28;20030;-84
2021/04/18 01:03:52;;;;;;;3.88;1.85;;;5.80;72.90;;;;;;2062163;28;20038;-84
2021/04/18 01:04:52;;;;;;;3.28;1.58;;;5.70;72.80;;;;;;2062670;28;20408;-84
2021/04/18 01:05:53;;;;;;;2.95;1.50;;;5.70;72.90;;;;;;2073541;28;20030;-84
2021/04/18 01:06:54;;;;;;;4.20;1.67;;;5.80;73.00;;;;;;2073133;28;20065;-84
2021/04/18 01:07:55;;;;;;;4.63;1.73;;;5.70;72.90;;;;;;2070905;28;20030;-84
2021/04/18 01:08:55;;;;;;;3.92;1.60;;;5.70;72.90;;;;;;2086612;28;20117;-84
2021/04/18 01:09:57;;;;;;;4.20;1.52;;;5.70;72.90;;;;;;2083851;28;20025;-84
2021/04/18 01:10:58;;;;;;;4.50;1.60;;;5.70;73.00;;;;;;2072710;28;20493;-84
2021/04/18 01:11:59;;;;;;;3.60;1.42;;;5.70;72.90;;;;;;2064444;28;20049;-84
2021/04/18 01:12:59;;;;;;;4.97;1.70;;;5.70;73.60;;;;;;2068448;28;20022;-84
2021/04/18 01:14:00;;;;;;;4.00;1.52;;;5.70;73.00;;;;;;2062161;28;20547;-84
2021/04/18 01:15:02;;;;;;;4.07;1.50;;;5.70;73.10;;;;;;2064370;28;20096;-84
2021/04/18 01:16:04;;;;;;;3.33;1.45;;;5.70;73.10;;;;;;2070907;28;20029;-84
2021/04/18 01:17:04;;;;;;;4.13;1.70;;;5.70;73.20;;;;;;2075539;28;20018;-84
2021/04/18 01:18:05;;;;;;;2.80;1.42;;;5.70;73.20;;;;;;2064896;28;20394;-85
2021/04/18 01:19:06;;;;;;;3.65;1.67;;;5.60;73.20;;;;;;2057537;28;20030;-84
2021/04/18 01:20:10;;;;;;;3.17;1.42;;;5.70;73.30;;;;;;2087171;28;20511;-84
2021/04/18 01:21:12;;;;;;;3.72;1.60;;;5.70;73.30;;;;;;2081954;28;20025;-83
2021/04/18 01:22:13;;;;;;;3.70;1.63;;;5.60;73.20;;;;;;2079036;28;20034;-84
2021/04/18 01:23:13;;;;;;;3.75;1.70;;;5.60;73.90;;;;;;2081898;28;20026;-84
2021/04/18 01:24:14;;;;;;;3.58;1.67;;;5.60;73.30;;;;;;2088631;28;20136;-84
2021/04/18 01:25:15;;;;;;;3.35;1.52;;;5.60;74.00;;;;;;2082154;28;20100;-83
2021/04/18 01:26:16;;;;;;;3.85;1.70;;;5.60;73.40;;;;;;2076585;28;20125;-84
2021/04/18 01:27:19;;;;;;;4.45;1.67;;;5.60;73.50;;;;;;2075077;28;20504;-84
2021/04/18 01:28:19;;;;;;;4.45;1.77;;;5.50;73.50;;;;;;2072402;28;20484;-84
2021/04/18 01:29:20;;;;;;;4.53;1.63;;;5.50;73.50;;;;;;2076846;28;20026;-84
2021/04/18 01:30:25;;;;;;;3.65;1.80;;;5.50;73.50;;;;;;2091514;28;20150;-84
2021/04/18 01:31:25;;;;;;;4.50;1.45;;;5.50;73.60;;;;;;2081588;28;20116;-84
2021/04/18 01:32:26;;;;;;;3.83;1.67;;;5.50;73.60;;;;;;2076336;28;20041;-84
2021/04/18 01:33:27;;;;;;;4.78;1.52;;;5.50;73.60;;;;;;2073144;28;20029;-84
2021/04/18 01:34:28;;;;;;;4.15;1.80;;;5.40;73.60;;;;;;2086881;28;20036;-83
2021/04/18 01:35:29;;;;;;;5.25;1.52;;;5.40;73.60;;;;;;2080410;28;20060;-84
2021/04/18 01:36:30;;;;;;;4.20;1.70;;;5.40;73.60;;;;;;2077094;28;20056;-84
2021/04/18 01:37:31;;;;;;;3.15;1.30;;;5.40;73.60;;;;;;2076431;28;20061;-85
2021/04/18 01:38:33;;;;;;;3.90;1.50;;;5.40;73.70;;;;;;2086631;28;20037;-85
2021/04/18 01:39:34;;;;;;;3.35;1.50;;;5.30;73.70;;;;;;2086178;28;20017;-84
2021/04/18 01:40:35;;;;;;;4.40;1.60;;;5.40;73.70;;;;;;2080327;28;20025;-84
2021/04/18 01:41:36;;;;;;;4.70;1.58;;;5.30;73.70;;;;;;2075849;28;20459;-85
2021/04/18 01:42:37;;;;;;;3.97;1.77;;;5.30;73.70;;;;;;2080369;28;20041;-84
2021/04/18 01:43:40;;;;;;;3.88;1.63;;;5.30;73.70;;;;;;2074840;28;20030;-84
2021/04/18 01:44:41;;;;;;;3.30;1.38;;;5.30;73.80;;;;;;2076964;28;20030;-83
2021/04/18 01:45:42;;;;;;;2.65;1.23;;;5.30;73.80;;;;;;2070745;28;20029;-84
2021/04/18 01:46:45;;;;;;;4.13;1.40;;;5.20;73.70;;;;;;2072529;28;20606;-83
2021/04/18 01:47:46;;;;;;;3.40;1.58;;;5.20;73.70;;;;;;2088662;28;20028;-84
2021/04/18 01:48:47;;;;;;;4.00;1.55;;;5.20;73.70;;;;;;2078585;28;20029;-83
2021/04/18 01:49:47;;;;;;;3.63;1.50;;;5.20;73.80;;;;;;2070795;28;20033;-84
2021/04/18 01:50:50;;;;;;;4.72;1.40;;;5.10;73.70;;;;;;2070168;28;20109;-85
2021/04/18 01:51:51;;;;;;;4.93;1.70;;;5.20;73.80;;;;;;2072330;28;20026;-84
2021/04/18 01:52:52;;;;;;;2.95;1.40;;;5.20;73.70;;;;;;2077478;28;20045;-84
2021/04/18 01:53:53;;;;;;;2.80;1.50;;;5.10;73.70;;;;;;2078855;28;20061;-84
2021/04/18 01:54:53;;;;;;;4.07;1.70;;;5.10;73.80;;;;;;2068541;28;20116;-85
2021/04/18 01:55:54;;;;;;;3.95;1.50;;;5.00;73.90;;;;;;2063240;28;20041;-84
2021/04/18 01:56:55;;;;;;;4.15;1.58;;;5.00;73.90;;;;;;2071945;28;20034;-84
2021/04/18 01:57:55;;;;;;;4.35;1.85;;;5.00;74.00;;;;;;2082046;28;20033;-84
2021/04/18 01:58:56;;;;;;;4.72;1.83;;;4.90;74.10;;;;;;2073218;28;20116;-84
2021/04/18 01:59:57;;;;;;;3.65;1.58;;;4.90;74.20;;;;;;2063250;28;20036;-84
2021/04/18 02:00:57;;;;;;;3.70;1.60;;;4.90;74.80;;;;;;2072047;28;20085;-84
2021/04/18 02:02:09;;;;;;;3.55;1.52;;;4.90;74.30;;;;;;2066978;28;20576;-84
2021/04/18 02:03:10;;;;;;;4.15;1.70;;;4.80;74.30;;;;;;2076725;28;20208;-84
2021/04/18 02:04:22;;;;;;;5.30;1.60;;;4.80;74.30;;;;;;2075452;28;20046;-84
2021/04/18 02:05:22;;;;;;;4.28;1.50;;;4.80;74.40;;;;;;2078535;28;20033;-84
2021/04/18 02:06:23;;;;;;;4.35;2.00;;;4.80;74.30;;;;;;2080528;28;20498;-84
2021/04/18 02:07:23;;;;;;;5.38;1.75;;;4.80;74.30;;;;;;2067389;28;20357;-84
2021/04/18 02:08:24;;;;;;;3.35;1.55;;;4.80;74.30;;;;;;2088384;28;20025;-84
2021/04/18 02:09:25;;;;;;;4.80;1.65;;;4.80;74.30;;;;;;2076895;28;20586;-84
2021/04/18 02:10:26;;;;;;;4.43;1.67;;;4.80;74.30;;;;;;2069286;28;20034;-84
2021/04/18 02:11:26;;;;;;;4.82;1.83;;;4.80;74.30;;;;;;2075222;28;20117;-84
2021/04/18 02:12:27;;;;;;;3.53;1.58;;;4.70;74.30;;;;;;2084641;28;20025;-84
2021/04/18 02:13:30;;;;;;;4.95;2.00;;;4.70;74.30;;;;;;2077338;28;20072;-83
2021/04/18 02:14:31;;;;;;;3.53;1.70;;;4.70;74.30;;;;;;2078928;28;20025;-84
2021/04/18 02:15:31;;;;;;;4.68;1.75;;;4.70;74.40;;;;;;2076759;28;20495;-83
2021/04/18 02:16:33;;;;;;;4.55;1.60;;;4.70;74.40;;;;;;2069510;28;20049;-83
2021/04/18 02:17:33;;;;;;;4.80;1.70;;;4.70;74.40;;;;;;2084485;28;20099;-84
2021/04/18 02:18:34;;;;;;;3.63;1.48;;;4.70;75.00;;;;;;2080401;28;20091;-84
2021/04/18 02:19:35;;;;;;;3.78;1.70;;;4.70;74.40;;;;;;2071597;28;20065;-84
2021/04/18 02:20:36;;;;;;;4.10;1.70;;;4.70;74.40;;;;;;2067481;28;20026;-83
2021/04/18 02:21:36;;;;;;;4.72;1.80;;;4.70;75.00;;;;;;2069794;28;20037;-84
2021/04/18 02:22:37;;;;;;;5.25;2.10;;;4.70;74.40;;;;;;2073451;28;20022;-84
2021/04/18 02:23:37;;;;;;;3.13;1.60;;;4.70;74.40;;;;;;2073361;28;20049;-84
2021/04/18 02:24:38;;;;;;;3.47;1.48;;;4.70;74.40;;;;;;2072149;28;20408;-84
2021/04/18 02:25:39;;;;;;;3.13;1.50;;;4.70;74.30;;;;;;2070263;28;20057;-84
2021/04/18 02:26:40;;;;;;;4.30;1.80;;;4.60;74.30;;;;;;2070796;28;20060;-84
2021/04/18 02:27:41;;;;;;;5.65;1.85;;;4.60;74.30;;;;;;2088863;28;20025;-84
2021/04/18 02:28:42;;;;;;;4.32;1.70;;;4.60;74.30;;;;;;2077344;28;20135;-84
2021/04/18 02:29:42;;;;;;;3.72;1.90;;;4.60;74.50;;;;;;2072685;28;20078;-84
2021/04/18 02:30:43;;;;;;;3.13;1.50;;;4.50;74.60;;;;;;2078250;28;20035;-84
2021/04/18 02:31:44;;;;;;;4.40;1.92;;;4.50;74.70;;;;;;2071880;28;20560;-84
2021/04/18 02:32:45;;;;;;;3.67;1.65;;;4.50;74.80;;;;;;2079291;28;20033;-84
2021/04/18 02:33:45;;;;;;;4.95;1.90;;;4.50;74.90;;;;;;2072385;28;20033;-84
2021/04/18 02:34:47;;;;;;;3.80;1.90;;;4.50;75.00;;;;;;2078308;28;20033;-84
2021/04/18 02:35:47;;;;;;;4.93;2.00;;;4.50;75.00;;;;;;2082459;28;20112;-84
2021/04/18 02:36:48;;;;;;;3.92;1.60;;;4.60;75.10;;;;;;2069588;28;20026;-84
2021/04/18 02:37:48;;;;;;;5.68;2.10;;;4.60;75.00;;;;;;2076781;28;20029;-84
2021/04/18 02:38:49;;;;;;;4.32;2.00;;;4.60;75.70;;;;;;2071869;28;20081;-84
2021/04/18 02:39:50;;;;;;;3.72;1.75;;;4.50;75.10;;;;;;2048940;28;20031;-84
2021/04/18 02:40:50;;;;;;;5.22;2.05;;;4.60;75.20;;;;;;2056163;28;20130;-85
2021/04/18 02:41:51;;;;;;;4.68;2.17;;;4.60;75.20;;;;;;2054098;28;20121;-85
2021/04/18 02:42:52;;;;;;;4.55;2.08;;;4.60;75.20;;;;;;2056354;28;20038;-85
2021/04/18 02:43:53;;;;;;;5.55;2.15;;;4.60;75.30;;;;;;2070979;28;20073;-84
2021/04/18 02:44:53;;;;;;;6.32;2.30;;;4.60;75.30;;;;;;2073861;28;20041;-84
2021/04/18 02:45:54;;;;;;;5.32;2.03;;;4.70;75.40;;;;;;2076280;28;20446;-84
2021/04/18 02:46:55;;;;;;;5.38;2.05;;;4.70;75.40;;;;;;2067404;28;20566;-84
2021/04/18 02:47:55;;;;;;;6.00;2.20;;;4.70;75.40;;;;;;2073990;28;20022;-84
2021/04/18 02:48:57;;;;;;;5.60;2.40;;;4.70;75.40;;;;;;2088307;28;20123;-85
2021/04/18 02:49:58;;;;;;;6.18;2.42;;;4.70;75.50;;;;;;2072693;28;20073;-84
2021/04/18 02:50:58;;;;;;;6.22;2.30;;;4.70;75.50;;;;;;2063972;28;20077;-84
2021/04/18 02:51:59;;;;;;;4.68;2.53;;;4.70;75.70;;;;;;2068369;28;20436;-84
2021/04/18 02:53:00;;;;;;;5.50;2.25;;;4.60;75.80;;;;;;2067693;28;20025;-84
2021/04/18 02:54:00;;;;;;;5.40;2.53;;;4.60;75.80;;;;;;2063945;28;20029;-85
2021/04/18 02:55:02;;;;;;;5.38;2.63;;;4.60;75.90;;;;;;2072167;28;20033;-84
2021/04/18 02:56:03;;;;;;;5.03;2.40;;;4.60;76.00;;;;;;2065996;28;20030;-84
2021/04/18 02:57:04;;;;;;;4.82;2.47;;;4.60;76.10;;;;;;2074802;28;20037;-84
2021/04/18 02:58:05;;;;;;;6.10;2.75;;;4.70;76.20;;;;;;2078412;28;20530;-85
2021/04/18 02:59:06;;;;;;;5.93;2.70;;;4.60;76.20;;;;;;2071182;28;20030;-84
2021/04/18 03:00:07;;;;;;;6.18;2.63;;;4.70;76.30;;;;;;2072724;28;20429;-84
2021/04/18 03:01:08;;;;;;;6.32;2.55;;;4.70;76.40;;;;;;2073749;28;20100;-85
2021/04/18 03:02:08;;;;;;;6.90;2.58;;;4.70;76.50;;;;;;2070437;28;20080;-84
2021/04/18 03:03:09;;;;;;;8.02;3.03;;;4.60;76.40;;;;;;2056136;28;20142;-84
2021/04/18 03:04:10;;;;;;;5.50;2.65;;;4.60;76.60;;;;;;2064116;28;20542;-84
2021/04/18 03:05:11;;;;;;;5.00;2.58;;;4.60;76.60;;;;;;2075130;28;20131;-84
2021/04/18 03:06:12;;;;;;;5.90;2.75;;;4.70;76.80;;;;;;2078313;28;20030;-84
2021/04/18 03:07:12;;;;;;;5.60;2.90;;;4.70;76.90;;;;;;2065386;28;20022;-84
2021/04/18 03:08:13;;;;;;;6.28;2.80;;;4.70;77.00;;;;;;2077066;28;20061;-84
2021/04/18 03:09:14;;;;;;;7.22;3.15;;;4.70;77.00;;;;;;2081424;28;20100;-84
2021/04/18 03:10:15;;;;;;;7.53;3.08;;;4.70;77.00;;;;;;2072840;28;20447;-84
2021/04/18 03:11:17;;;;;;;7.18;2.70;;;4.70;77.10;;;;;;2062408;28;20029;-83
2021/04/18 03:12:18;;;;;;;6.25;2.85;;;4.70;77.10;;;;;;2057395;28;20170;-83
2021/04/18 03:13:18;;;;;;;7.75;2.88;;;4.70;77.20;;;;;;2065664;28;20030;-84
2021/04/18 03:14:19;;;;;;;9.82;3.30;;;4.70;77.20;;;;;;2065670;28;20057;-83
2021/04/18 03:15:20;;;;;;;5.68;2.67;;;4.70;77.30;;;;;;2072932;28;20489;-84
2021/04/18 03:16:20;;;;;;;5.53;2.95;;;4.70;77.30;;;;;;2084679;28;20037;-85
2021/04/18 03:17:21;;;;;;;6.57;2.88;;;4.70;77.30;;;;;;2088747;28;20116;-85
2021/04/18 03:18:22;;;;;;;5.80;3.15;;;4.70;77.40;;;;;;2076768;28;20026;-84
2021/04/18 03:19:22;;;;;;;4.70;2.63;;;4.70;77.30;;;;;;2082012;28;20032;-84
2021/04/18 03:20:23;;;;;;;6.78;2.90;;;4.80;77.40;;;;;;2087320;28;20494;-84
2021/04/18 03:21:24;;;;;;;7.38;3.00;;;4.80;77.50;;;;;;2070921;28;20492;-84
2021/04/18 03:22:25;;;;;;;6.22;3.17;;;4.80;77.50;;;;;;2070100;28;20026;-84
2021/04/18 03:23:25;;;;;;;6.40;2.92;;;4.80;77.60;;;;;;2071161;28;20030;-84
2021/04/18 03:24:26;;;;;;;5.88;2.95;;;4.80;77.60;;;;;;2070736;28;20419;-85
2021/04/18 03:25:26;;;;;;;6.70;3.08;;;4.80;78.30;;;;;;2062215;28;20554;-84
2021/04/18 03:26:27;;;;;;;6.57;3.10;;;4.80;77.60;;;;;;2069979;28;20133;-84
2021/04/18 03:27:28;;;;;;;6.82;3.15;;;4.80;77.60;;;;;;2071413;28;20026;-84
2021/04/18 03:28:28;;;;;;;7.38;2.95;;;4.80;77.70;;;;;;2075677;28;20026;-84
2021/04/18 03:29:29;;;;;;;7.15;3.45;;;4.80;77.70;;;;;;2073185;28;20434;-84
2021/04/18 03:30:32;;;;;;;7.60;3.17;;;4.80;77.70;;;;;;2059192;28;20469;-84
2021/04/18 03:31:32;;;;;;;8.82;3.17;;;4.80;77.70;;;;;;2071536;28;20033;-84
2021/04/18 03:32:34;;;;;;;7.82;3.42;;;4.80;77.80;;;;;;2069118;28;20647;-84
2021/04/18 03:33:34;;;;;;;7.43;3.55;;;4.80;77.90;;;;;;2064352;28;20089;-84
2021/04/18 03:34:35;;;;;;;6.85;3.58;;;4.80;78.00;;;;;;2056048;28;20082;-85
2021/04/18 03:35:35;;;;;;;9.20;3.33;;;4.80;78.00;;;;;;2071971;28;20492;-85
2021/04/18 03:36:36;;;;;;;6.97;3.25;;;4.80;78.00;;;;;;2074530;28;20025;-84
2021/04/18 03:37:37;;;;;;;7.10;3.03;;;4.80;78.10;;;;;;2071863;28;20129;-84
2021/04/18 03:38:38;;;;;;;6.97;3.50;;;4.80;78.10;;;;;;2087772;28;20013;-85
2021/04/18 03:39:40;;;;;;;6.57;3.30;;;4.80;78.20;;;;;;2084193;28;20289;-83
2021/04/18 03:40:41;;;;;;;7.05;3.60;;;4.80;78.50;;;;;;2076022;28;20128;-84
2021/04/18 03:41:41;;;;;;;6.10;3.25;;;4.80;78.50;;;;;;2073989;28;20037;-84
2021/04/18 03:42:42;;;;;;;8.07;3.63;;;4.80;78.60;;;;;;2077561;28;20116;-84
2021/04/18 03:43:43;;;;;;;7.88;3.55;;;4.70;78.50;;;;;;2071182;28;20439;-84
2021/04/18 03:44:43;;;;;;;8.32;3.95;;;4.80;78.70;;;;;;2077415;28;20082;-83
2021/04/18 03:45:44;;;;;;;7.72;3.58;;;4.70;78.60;;;;;;2079462;28;20403;-84
2021/04/18 03:46:45;;;;;;;9.85;3.63;;;4.70;78.80;;;;;;2063671;28;20525;-85
2021/04/18 03:47:45;;;;;;;9.40;4.05;;;4.70;78.70;;;;;;2063406;28;20058;-84
2021/04/18 03:48:46;;;;;;;8.27;3.60;;;4.70;78.70;;;;;;2069708;28;20173;-83
2021/04/18 03:49:46;;;;;;;9.07;3.80;;;4.70;78.80;;;;;;2063832;28;20038;-83
2021/04/18 03:50:47;;;;;;;5.82;3.05;;;4.70;78.80;;;;;;2053016;28;20053;-83
2021/04/18 03:51:48;;;;;;;7.60;3.28;;;4.70;78.80;;;;;;2055408;28;20039;-85
2021/04/18 03:52:49;;;;;;;8.30;3.47;;;4.80;78.90;;;;;;2063989;28;20033;-84
2021/04/18 03:53:49;;;;;;;8.25;3.60;;;4.80;79.00;;;;;;2064063;28;20036;-85
2021/04/18 03:54:50;;;;;;;7.65;3.78;;;4.70;78.90;;;;;;2062103;28;20026;-85
2021/04/18 03:55:50;;;;;;;7.57;3.38;;;4.70;79.00;;;;;;2062759;28;20174;-85
2021/04/18 03:56:51;;;;;;;5.85;3.50;;;4.80;79.70;;;;;;2079340;28;20095;-84
2021/04/18 03:57:53;;;;;;;6.68;3.30;;;4.70;79.10;;;;;;2072882;28;20488;-85
2021/04/18 03:58:54;;;;;;;6.57;3.42;;;4.80;79.20;;;;;;2075816;28;20030;-85
2021/04/18 03:59:54;;;;;;;7.35;3.35;;;4.80;79.30;;;;;;2071792;28;20026;-84
2021/04/18 04:00:55;;;;;;;7.15;3.58;;;4.80;79.30;;;;;;2080246;28;20036;-85
2021/04/18 04:01:55;;;;;;;8.65;3.58;;;4.80;79.30;;;;;;2072535;28;20061;-85
2021/04/18 04:02:56;;;;;;;9.07;3.85;;;4.80;79.30;;;;;;2062978;28;20030;-84
2021/04/18 04:03:57;;;;;;;8.55;3.90;;;4.80;79.30;;;;;;2077668;28;20045;-85
2021/04/18 04:04:57;;;;;;;8.48;3.70;;;4.70;79.30;;;;;;2081427;28;20025;-85
2021/04/18 04:05:58;;;;;;;7.70;3.45;;;4.80;79.40;;;;;;2083889;28;20036;-85
2021/04/18 04:06:58;;;;;;;7.47;3.55;;;4.70;79.40;;;;;;2072961;28;20096;-85
2021/04/18 04:08:00;;;;;;;6.53;3.60;;;4.70;79.50;;;;;;2073839;28;20053;-84
2021/04/18 04:09:00;;;;;;;7.78;3.40;;;4.70;79.60;;;;;;2064919;28;20496;-85
2021/04/18 04:10:04;;;;;;;8.15;3.50;;;4.70;79.60;;;;;;2072976;28;20138;-84
2021/04/18 04:11:05;;;;;;;6.85;3.28;;;4.70;79.70;;;;;;2076294;28;20153;-83
2021/04/18 04:12:06;;;;;;;6.80;3.30;;;4.70;79.80;;;;;;2075244;28;20584;-83
2021/04/18 04:13:07;;;;;;;7.07;2.97;;;4.70;79.80;;;;;;2086021;28;20057;-83
2021/04/18 04:14:07;;;;;;;5.32;2.85;;;4.60;79.90;;;;;;2078953;28;20088;-83
2021/04/18 04:15:08;;;;;;;5.93;3.20;;;4.60;79.90;;;;;;2073169;28;20461;-83
2021/04/18 04:16:09;;;;;;;6.88;3.20;;;4.60;80.00;;;;;;2068470;28;20064;-83
2021/04/18 04:17:10;;;;;;;5.75;3.03;;;4.60;80.10;;;;;;2071970;28;20049;-83
2021/04/18 04:18:10;;;;;;;5.50;2.40;;;4.60;80.00;;;;;;2078389;28;20519;-84
2021/04/18 04:19:11;;;;;;;4.65;2.65;;;4.50;80.00;;;;;;2081587;28;20041;-83
2021/04/18 04:20:12;;;;;;;5.60;2.70;;;4.50;80.00;;;;;;2080903;28;20034;-83
2021/04/18 04:21:13;;;;;;;4.95;2.50;;;4.50;80.00;;;;;;2081459;28;20029;-84
2021/04/18 04:22:14;;;;;;;6.15;2.50;;;4.50;80.00;;;;;;2072995;28;20040;-83
2021/04/18 04:23:15;;;;;;;5.13;2.40;;;4.50;80.60;;;;;;2076884;28;20025;-83
2021/04/18 04:24:15;;;;;;;3.88;1.92;;;4.50;80.00;;;;;;2080619;28;20045;-83
2021/04/18 04:25:16;;;;;;;4.40;2.20;;;4.40;80.00;;;;;;2080956;28;20411;-84
2021/04/18 04:26:17;;;;;;;3.90;2.20;;;4.40;80.00;;;;;;2063192;28;20035;-84
2021/04/18 04:27:19;;;;;;;4.45;2.15;;;4.40;80.10;;;;;;2072111;28;20025;-84
2021/04/18 04:28:20;;;;;;;3.53;2.10;;;4.30;80.70;;;;;;2073613;28;20034;-84
2021/04/18 04:29:20;;;;;;;4.45;1.85;;;4.30;80.20;;;;;;2065427;28;20034;-84
2021/04/18 04:30:21;;;;;;;2.78;1.55;;;4.30;80.30;;;;;;2073130;28;20091;-84
2021/04/18 04:31:22;;;;;;;4.00;2.00;;;4.20;80.30;;;;;;2084022;28;20056;-84
2021/04/18 04:32:23;;;;;;;3.70;1.88;;;4.20;80.40;;;;;;2074322;28;20033;-84
2021/04/18 04:33:23;;;;;;;4.35;2.28;;;4.20;80.50;;;;;;2076230;28;20034;-84
2021/04/18 04:34:24;;;;;;;4.07;2.20;;;4.10;80.60;;;;;;2077473;28;20018;-84
2021/04/18 04:35:25;;;;;;;5.18;2.47;;;4.10;80.70;;;;;;2076664;28;20048;-84
2021/04/18 04:36:25;;;;;;;4.15;1.92;;;4.10;80.70;;;;;;2079844;28;20030;-84
2021/04/18 04:37:26;;;;;;;3.85;1.90;;;4.10;80.80;;;;;;2077155;28;20147;-84
2021/04/18 04:38:27;;;;;;;4.70;2.00;;;4.10;80.90;;;;;;2064889;28;20378;-84
2021/04/18 04:39:27;;;;;;;3.67;1.90;;;4.00;80.80;;;;;;2052188;28;20075;-85
2021/04/18 04:40:28;;;;;;;4.78;2.40;;;4.00;80.80;;;;;;2066149;28;20504;-84
2021/04/18 04:41:29;;;;;;;3.42;1.98;;;4.00;80.80;;;;;;2071786;28;20077;-84
2021/04/18 04:42:29;;;;;;;4.30;1.90;;;4.00;80.80;;;;;;2066445;28;20038;-84
2021/04/18 04:43:31;;;;;;;4.30;1.88;;;4.00;80.90;;;;;;2073838;28;20046;-84
2021/04/18 04:44:32;;;;;;;4.07;1.98;;;4.00;80.90;;;;;;2073735;28;20033;-84
2021/04/18 04:45:32;;;;;;;5.00;2.22;;;4.00;80.90;;;;;;2082810;28;20512;-85
2021/04/18 04:46:33;;;;;;;4.53;2.20;;;3.90;80.90;;;;;;2079085;28;20096;-84
2021/04/18 04:47:34;;;;;;;5.93;2.28;;;3.90;81.10;;;;;;2075910;28;20022;-84
2021/04/18 04:48:35;;;;;;;5.28;2.55;;;4.00;81.10;;;;;;2079257;28;20026;-84
2021/04/18 04:49:35;;;;;;;4.38;2.35;;;4.00;81.10;;;;;;2082217;28;20215;-84
2021/04/18 04:50:36;;;;;;;4.32;2.17;;;3.90;81.20;;;;;;2081481;28;20014;-84
2021/04/18 04:51:37;;;;;;;4.47;2.25;;;3.90;81.20;;;;;;2082351;28;20146;-84
2021/04/18 04:52:38;;;;;;;3.85;2.05;;;4.00;81.20;;;;;;2085687;28;20120;-84
2021/04/18 04:53:39;;;;;;;4.80;2.22;;;4.00;81.30;;;;;;2084422;28;20092;-86
2021/04/18 04:54:40;;;;;;;4.00;2.20;;;3.90;81.20;;;;;;2058514;28;20464;-85
2021/04/18 04:55:42;;;;;;;5.30;2.40;;;4.00;81.20;;;;;;2066832;28;20031;-85
2021/04/18 04:56:43;;;;;;;4.55;2.17;;;4.00;81.20;;;;;;2066418;28;20056;-85
2021/04/18 04:57:44;;;;;;;3.40;1.92;;;4.00;81.20;;;;;;2067426;28;20030;-85
2021/04/18 04:58:44;;;;;;;5.00;2.40;;;4.00;81.20;;;;;;2073210;28;20941;-85
2021/04/18 04:59:45;;;;;;;3.53;2.00;;;4.00;81.30;;;;;;2073469;28;20458;-85
2021/04/18 05:00:45;;;;;;;4.25;2.25;;;4.00;81.30;;;;;;2074391;28;20041;-85
2021/04/18 05:01:46;;;;;;;4.57;1.98;;;4.00;81.30;;;;;;2080288;28;20042;-85
2021/04/18 05:02:47;;;;;;;3.83;2.13;;;4.10;81.40;;;;;;2079276;28;20022;-85
2021/04/18 05:03:47;;;;;;;4.03;1.95;;;4.10;81.40;;;;;;2068201;28;20050;-85
2021/04/18 05:04:48;;;;;;;3.03;1.88;;;4.10;81.90;;;;;;2061939;28;20034;-85
2021/04/18 05:05:48;;;;;;;3.53;1.95;;;4.20;81.30;;;;;;2065165;28;20276;-85
2021/04/18 05:06:49;;;;;;;3.67;1.90;;;4.20;81.20;;;;;;2073330;28;20046;-85
2021/04/18 05:07:50;;;;;;;4.53;2.00;;;4.20;81.20;;;;;;2084736;28;20369;-85
2021/04/18 05:08:50;;;;;;;4.90;1.83;;;4.20;81.10;;;;;;2065618;28;20085;-85
2021/04/18 05:09:51;;;;;;;3.55;1.80;;;4.20;81.10;;;;;;2049240;28;20027;-85
2021/04/18 05:10:52;;;;;;;4.07;1.80;;;4.20;81.10;;;;;;2056999;28;20501;-85
2021/04/18 05:11:54;;;;;;;5.63;2.33;;;4.30;81.10;;;;;;2073898;28;20496;-85
2021/04/18 05:12:54;;;;;;;4.80;1.80;;;4.30;81.00;;;;;;2073783;28;20084;-85
2021/04/18 05:13:55;;;;;;;3.17;1.77;;;4.30;81.00;;;;;;2081762;28;20111;-85
2021/04/18 05:14:56;;;;;;;3.47;1.77;;;4.40;81.00;;;;;;2074463;28;20403;-84
2021/04/18 05:15:56;;;;;;;2.95;1.63;;;4.40;80.90;;;;;;2083661;28;20033;-85
2021/04/18 05:16:57;;;;;;;3.50;1.90;;;4.40;80.90;;;;;;2085040;28;20029;-85
2021/04/18 05:17:58;;;;;;;5.00;1.95;;;4.40;80.90;;;;;;2076463;28;20047;-84
2021/04/18 05:18:58;;;;;;;2.88;1.73;;;4.50;81.60;;;;;;2089724;28;20041;-85
2021/04/18 05:19:59;;;;;;;4.85;2.00;;;4.50;80.90;;;;;;2091073;28;20044;-85
2021/04/18 05:21:00;;;;;;;4.10;2.00;;;4.50;80.90;;;;;;2097438;28;20080;-85
2021/04/18 05:22:00;;;;;;;3.40;1.67;;;4.50;80.80;;;;;;2090439;28;20034;-84